sensor_id;sensor_type;location;lat;lon;timestamp;pressure;altitude;pressure_sealevel;temperature;humidity
72721;BME280;60835;50.974;10.322;2022-07-30T00:00:30;98049.38;;;16.74;100.00
72721;BME280;60835;50.974;10.322;2022-07-30T00:02:57;98039.78;;;16.86;100.00
72721;BME280;60835;50.974;10.322;2022-07-30T00:05:24;98042.63;;;16.98;100.00
72721;BME280;60835;50.974;10.322;2022-07-30T00:14:21;98044.22;;;16.60;100.00
72721;BME280;60835;50.974;10.322;2022-07-30T00:16:49;98059.63;;;16.64;100.00
72721;BME280;60835;50.974;10.322;2022-07-30T00:19:16;98066.00;;;16.63;100.00
72721;BME280;60835;50.974;10.322;2022-07-30T00:21:43;98066.66;;;16.72;100.00
72721;BME280;60835;50.974;10.322;2022-07-30T00:24:10;98064.63;;;16.80;100.00
72721;BME280;60835;50.974;10.322;2022-07-30T00:26:37;98071.78;;;16.73;100.00
72721;BME280;60835;50.974;10.322;2022-07-30T00:29:04;98061.91;;;16.74;100.00
72721;BME280;60835;50.974;10.322;2022-07-30T00:31:31;98057.00;;;16.77;100.00
72721;BME280;60835;50.974;10.322;2022-07-30T00:33:58;98074.00;;;16.63;100.00
72721;BME280;60835;50.974;10.322;2022-07-30T00:36:25;98050.38;;;16.60;100.00
72721;BME280;60835;50.974;10.322;2022-07-30T00:38:51;98074.00;;;16.63;100.00
72721;BME280;60835;50.974;10.322;2022-07-30T00:41:19;98063.25;;;16.50;100.00
72721;BME280;60835;50.974;10.322;2022-07-30T00:43:47;98056.47;;;16.41;100.00
72721;BME280;60835;50.974;10.322;2022-07-30T00:46:14;98082.56;;;16.52;100.00
72721;BME280;60835;50.974;10.322;2022-07-30T00:48:41;98085.22;;;16.52;100.00
72721;BME280;60835;50.974;10.322;2022-07-30T00:51:08;98073.31;;;16.48;100.00
72721;BME280;60835;50.974;10.322;2022-07-30T00:53:35;98077.00;;;16.47;100.00
72721;BME280;60835;50.974;10.322;2022-07-30T00:56:03;98073.50;;;16.40;100.00
72721;BME280;60835;50.974;10.322;2022-07-30T00:58:29;98074.09;;;16.35;100.00
72721;BME280;60835;50.974;10.322;2022-07-30T01:00:56;98078.78;;;16.27;100.00
72721;BME280;60835;50.974;10.322;2022-07-30T01:03:23;98073.66;;;16.32;100.00
72721;BME280;60835;50.974;10.322;2022-07-30T01:05:50;98075.50;;;16.31;100.00
72721;BME280;60835;50.974;10.322;2022-07-30T01:08:16;98032.09;;;16.10;100.00
72721;BME280;60835;50.974;10.322;2022-07-30T01:10:44;98040.34;;;16.15;100.00
72721;BME280;60835;50.974;10.322;2022-07-30T01:13:11;98052.31;;;16.32;100.00
72721;BME280;60835;50.974;10.322;2022-07-30T01:15:42;98073.94;;;16.43;100.00
72721;BME280;60835;50.974;10.322;2022-07-30T01:18:11;98057.03;;;16.36;100.00
72721;BME280;60835;50.974;10.322;2022-07-30T01:20:49;98073.78;;;16.58;100.00
72721;BME280;60835;50.974;10.322;2022-07-30T01:23:37;98064.97;;;16.64;100.00
72721;BME280;60835;50.974;10.322;2022-07-30T01:26:10;98075.22;;;16.61;100.00
72721;BME280;60835;50.974;10.322;2022-07-30T01:28:44;98053.16;;;16.39;100.00
72721;BME280;60835;50.974;10.322;2022-07-30T01:31:12;98088.19;;;16.57;100.00
72721;BME280;60835;50.974;10.322;2022-07-30T01:33:47;98085.31;;;16.59;100.00
72721;BME280;60835;50.974;10.322;2022-07-30T01:36:17;98087.16;;;16.58;100.00
72721;BME280;60835;50.974;10.322;2022-07-30T01:38:46;98106.16;;;16.42;100.00
72721;BME280;60835;50.974;10.322;2022-07-30T01:41:15;98067.94;;;16.35;100.00
72721;BME280;60835;50.974;10.322;2022-07-30T01:43:44;98061.75;;;16.28;100.00
72721;BME280;60835;50.974;10.322;2022-07-30T01:46:13;98068.38;;;16.38;100.00
72721;BME280;60835;50.974;10.322;2022-07-30T01:48:47;98094.28;;;16.51;100.00
72721;BME280;60835;50.974;10.322;2022-07-30T01:51:16;98068.31;;;16.25;100.00
72721;BME280;60835;50.974;10.322;2022-07-30T01:53:43;98095.56;;;16.55;100.00
72721;BME280;60835;50.974;10.322;2022-07-30T01:56:15;98094.75;;;16.61;100.00
72721;BME280;60835;50.974;10.322;2022-07-30T01:58:51;98088.13;;;16.51;100.00
72721;BME280;60835;50.974;10.322;2022-07-30T02:01:22;98088.72;;;16.46;100.00
72721;BME280;60835;50.974;10.322;2022-07-30T02:03:49;98091.16;;;16.41;100.00
72721;BME280;60835;50.974;10.322;2022-07-30T02:06:22;98095.63;;;16.34;100.00
72721;BME280;60835;50.974;10.322;2022-07-30T02:08:55;98085.13;;;16.26;100.00
72721;BME280;60835;50.974;10.322;2022-07-30T02:11:23;98074.44;;;16.19;100.00
72721;BME280;60835;50.974;10.322;2022-07-30T02:14:21;98069.94;;;16.20;100.00
72721;BME280;60835;50.974;10.322;2022-07-30T02:16:52;98082.22;;;16.21;100.00
72721;BME280;60835;50.974;10.322;2022-07-30T02:19:23;98041.47;;;15.99;100.00
72721;BME280;60835;50.974;10.322;2022-07-30T02:22:05;98076.94;;;16.34;100.00
72721;BME280;60835;50.974;10.322;2022-07-30T02:24:35;98077.59;;;16.36;100.00
72721;BME280;60835;50.974;10.322;2022-07-30T02:27:11;98080.72;;;16.46;100.00
72721;BME280;60835;50.974;10.322;2022-07-30T02:29:39;98064.88;;;16.44;100.00
72721;BME280;60835;50.974;10.322;2022-07-30T02:32:10;98080.94;;;16.51;100.00
72721;BME280;60835;50.974;10.322;2022-07-30T02:34:39;98086.53;;;16.56;100.00
72721;BME280;60835;50.974;10.322;2022-07-30T02:37:09;98091.03;;;16.56;100.00
72721;BME280;60835;50.974;10.322;2022-07-30T02:39:42;98078.66;;;16.48;100.00
72721;BME280;60835;50.974;10.322;2022-07-30T02:42:11;98049.41;;;16.27;100.00
72721;BME280;60835;50.974;10.322;2022-07-30T02:44:41;98079.44;;;16.42;100.00
72721;BME280;60835;50.974;10.322;2022-07-30T02:47:11;98084.75;;;16.29;100.00
72721;BME280;60835;50.974;10.322;2022-07-30T02:49:39;98096.69;;;16.33;100.00
72721;BME280;60835;50.974;10.322;2022-07-30T02:52:07;98090.69;;;16.31;100.00
72721;BME280;60835;50.974;10.322;2022-07-30T02:54:38;98093.38;;;16.31;100.00
72721;BME280;60835;50.974;10.322;2022-07-30T02:57:07;98005.22;;;15.70;100.00
72721;BME280;60835;50.974;10.322;2022-07-30T02:59:36;98086.56;;;16.22;100.00
72721;BME280;60835;50.974;10.322;2022-07-30T03:02:06;98086.41;;;16.30;100.00
72721;BME280;60835;50.974;10.322;2022-07-30T03:04:34;98048.75;;;16.18;100.00
72721;BME280;60835;50.974;10.322;2022-07-30T03:07:04;98081.50;;;16.40;100.00
72721;BME280;60835;50.974;10.322;2022-07-30T03:09:36;98064.00;;;16.31;100.00
72721;BME280;60835;50.974;10.322;2022-07-30T03:12:17;98086.56;;;16.28;100.00
72721;BME280;60835;50.974;10.322;2022-07-30T03:14:45;98081.84;;;16.24;100.00
72721;BME280;60835;50.974;10.322;2022-07-30T03:17:14;97982.38;;;15.55;100.00
72721;BME280;60835;50.974;10.322;2022-07-30T03:19:41;98031.22;;;15.96;100.00
72721;BME280;60835;50.974;10.322;2022-07-30T03:22:11;98086.41;;;16.30;100.00
72721;BME280;60835;50.974;10.322;2022-07-30T03:24:42;98074.44;;;16.26;100.00
72721;BME280;60835;50.974;10.322;2022-07-30T03:27:09;98085.72;;;16.21;100.00
72721;BME280;60835;50.974;10.322;2022-07-30T03:29:37;98054.66;;;16.01;100.00
72721;BME280;60835;50.974;10.322;2022-07-30T03:32:06;98081.00;;;16.17;100.00
72721;BME280;60835;50.974;10.322;2022-07-30T03:34:37;98078.72;;;16.14;100.00
72721;BME280;60835;50.974;10.322;2022-07-30T03:37:05;98061.31;;;15.83;100.00
72721;BME280;60835;50.974;10.322;2022-07-30T03:39:35;98081.31;;;16.01;100.00
72721;BME280;60835;50.974;10.322;2022-07-30T03:42:05;98093.44;;;16.03;100.00
72721;BME280;60835;50.974;10.322;2022-07-30T03:44:34;98085.88;;;16.07;100.00
72721;BME280;60835;50.974;10.322;2022-07-30T03:47:03;98085.88;;;16.07;100.00
72721;BME280;60835;50.974;10.322;2022-07-30T03:49:32;98072.31;;;16.02;100.00
72721;BME280;60835;50.974;10.322;2022-07-30T03:52:00;98082.16;;;16.08;100.00
72721;BME280;60835;50.974;10.322;2022-07-30T03:54:33;98087.50;;;16.08;100.00
72721;BME280;60835;50.974;10.322;2022-07-30T03:57:02;98092.84;;;16.08;100.00
72721;BME280;60835;50.974;10.322;2022-07-30T03:59:29;98096.94;;;16.04;100.00
72721;BME280;60835;50.974;10.322;2022-07-30T04:02:02;98108.38;;;15.98;100.00
72721;BME280;60835;50.974;10.322;2022-07-30T04:04:35;98080.78;;;15.77;100.00
72721;BME280;60835;50.974;10.322;2022-07-30T04:07:12;98117.16;;;15.92;100.00
72721;BME280;60835;50.974;10.322;2022-07-30T04:09:38;98122.91;;;15.89;100.00
72721;BME280;60835;50.974;10.322;2022-07-30T04:12:05;98074.56;;;15.70;100.00
72721;BME280;60835;50.974;10.322;2022-07-30T04:14:39;98110.44;;;15.96;100.00
72721;BME280;60835;50.974;10.322;2022-07-30T04:17:43;98017.53;;;15.44;100.00
72721;BME280;60835;50.974;10.322;2022-07-30T04:20:14;98126.56;;;16.15;100.00
72721;BME280;60835;50.974;10.322;2022-07-30T04:22:43;98131.41;;;16.05;100.00
72721;BME280;60835;50.974;10.322;2022-07-30T04:25:12;98131.31;;;15.86;100.00
72721;BME280;60835;50.974;10.322;2022-07-30T04:27:49;98149.63;;;15.95;100.00
72721;BME280;60835;50.974;10.322;2022-07-30T04:30:29;98142.75;;;15.79;100.00
72721;BME280;60835;50.974;10.322;2022-07-30T04:32:56;98147.09;;;16.15;100.00
72721;BME280;60835;50.974;10.322;2022-07-30T04:35:30;98146.69;;;16.18;100.00
72721;BME280;60835;50.974;10.322;2022-07-30T04:38:17;98043.38;;;15.64;100.00
72721;BME280;60835;50.974;10.322;2022-07-30T04:40:44;98160.66;;;15.86;100.00
72721;BME280;60835;50.974;10.322;2022-07-30T04:43:15;98148.56;;;15.90;100.00
72721;BME280;60835;50.974;10.322;2022-07-30T04:45:43;98148.19;;;15.93;100.00
72721;BME280;60835;50.974;10.322;2022-07-30T04:48:10;98152.34;;;16.02;100.00
72721;BME280;60835;50.974;10.322;2022-07-30T04:50:40;98155.19;;;16.00;100.00
72721;BME280;60835;50.974;10.322;2022-07-30T04:53:10;98124.88;;;16.08;100.00
72721;BME280;60835;50.974;10.322;2022-07-30T04:55:40;98136.44;;;16.15;100.00
72721;BME280;60835;50.974;10.322;2022-07-30T04:58:09;98142.47;;;16.36;100.00
72721;BME280;60835;50.974;10.322;2022-07-30T05:00:40;98134.34;;;16.51;100.00
72721;BME280;60835;50.974;10.322;2022-07-30T05:03:10;98123.31;;;16.54;100.00
72721;BME280;60835;50.974;10.322;2022-07-30T05:05:39;98134.03;;;16.67;100.00
72721;BME280;60835;50.974;10.322;2022-07-30T05:08:06;98139.59;;;16.72;100.00
72721;BME280;60835;50.974;10.322;2022-07-30T05:10:35;98122.31;;;16.68;100.00
72721;BME280;60835;50.974;10.322;2022-07-30T05:13:01;98148.41;;;16.66;100.00
72721;BME280;60835;50.974;10.322;2022-07-30T05:15:33;98154.19;;;16.70;100.00
72721;BME280;60835;50.974;10.322;2022-07-30T05:18:04;98153.78;;;16.73;100.00
72721;BME280;60835;50.974;10.322;2022-07-30T05:20:33;98144.94;;;16.72;100.00
72721;BME280;60835;50.974;10.322;2022-07-30T05:23:00;98151.91;;;16.73;100.00
72721;BME280;60835;50.974;10.322;2022-07-30T05:25:27;98151.13;;;16.79;100.00
72721;BME280;60835;50.974;10.322;2022-07-30T05:27:53;98144.72;;;16.67;100.00
72721;BME280;60835;50.974;10.322;2022-07-30T05:30:22;98161.00;;;16.85;100.00
72721;BME280;60835;50.974;10.322;2022-07-30T05:32:53;98151.13;;;16.79;100.00
72721;BME280;60835;50.974;10.322;2022-07-30T05:35:21;98171.31;;;16.95;100.00
72721;BME280;60835;50.974;10.322;2022-07-30T05:37:47;98163.94;;;17.03;100.00
72721;BME280;60835;50.974;10.322;2022-07-30T05:40:14;98174.19;;;17.00;100.00
72721;BME280;60835;50.974;10.322;2022-07-30T05:42:42;98165.78;;;16.96;100.00
72721;BME280;60835;50.974;10.322;2022-07-30T05:45:09;98169.69;;;16.94;100.00
72721;BME280;60835;50.974;10.322;2022-07-30T05:47:35;98193.34;;;17.03;100.00
72721;BME280;60835;50.974;10.322;2022-07-30T05:50:02;98183.28;;;17.12;100.00
72721;BME280;60835;50.974;10.322;2022-07-30T05:52:30;98183.09;;;17.14;100.00
72721;BME280;60835;50.974;10.322;2022-07-30T05:54:57;98193.97;;;17.05;100.00
72721;BME280;60835;50.974;10.322;2022-07-30T05:57:24;98180.41;;;17.14;100.00
72721;BME280;60835;50.974;10.322;2022-07-30T05:59:53;98185.97;;;17.19;100.00
72721;BME280;60835;50.974;10.322;2022-07-30T06:02:20;98179.81;;;17.25;100.00
72721;BME280;60835;50.974;10.322;2022-07-30T06:04:50;98175.53;;;17.30;100.00
72721;BME280;60835;50.974;10.322;2022-07-30T06:07:17;98158.00;;;17.21;100.00
72721;BME280;60835;50.974;10.322;2022-07-30T06:09:44;98185.47;;;17.62;100.00
72721;BME280;60835;50.974;10.322;2022-07-30T06:12:10;98173.06;;;17.29;100.00
72721;BME280;60835;50.974;10.322;2022-07-30T06:14:37;98168.72;;;17.34;100.00
72721;BME280;60835;50.974;10.322;2022-07-30T06:17:03;98170.41;;;17.48;100.00
72721;BME280;60835;50.974;10.322;2022-07-30T06:19:30;98177.25;;;17.97;100.00
72721;BME280;60835;50.974;10.322;2022-07-30T06:21:57;98172.91;;;18.15;100.00
72721;BME280;60835;50.974;10.322;2022-07-30T06:24:35;98206.41;;;18.38;100.00
72721;BME280;60835;50.974;10.322;2022-07-30T06:27:03;98205.38;;;18.32;100.00
72721;BME280;60835;50.974;10.322;2022-07-30T06:29:30;98219.66;;;18.13;100.00
72721;BME280;60835;50.974;10.322;2022-07-30T06:31:59;98204.38;;;18.20;100.00
72721;BME280;60835;50.974;10.322;2022-07-30T06:34:25;98222.91;;;18.28;100.00
72721;BME280;60835;50.974;10.322;2022-07-30T06:36:52;98227.84;;;18.38;100.00
72721;BME280;60835;50.974;10.322;2022-07-30T06:39:19;98233.00;;;18.33;100.00
72721;BME280;60835;50.974;10.322;2022-07-30T06:42:06;98241.66;;;18.35;100.00
72721;BME280;60835;50.974;10.322;2022-07-30T06:44:32;98232.97;;;18.46;100.00
72721;BME280;60835;50.974;10.322;2022-07-30T06:46:59;98219.63;;;18.19;100.00
72721;BME280;60835;50.974;10.322;2022-07-30T06:49:33;98248.06;;;18.20;100.00
72721;BME280;60835;50.974;10.322;2022-07-30T06:52:00;98235.50;;;18.21;100.00
72721;BME280;60835;50.974;10.322;2022-07-30T06:54:27;98245.97;;;18.36;100.00
72721;BME280;60835;50.974;10.322;2022-07-30T06:56:53;98225.59;;;18.35;100.00
72721;BME280;60835;50.974;10.322;2022-07-30T06:59:20;98246.78;;;18.43;100.00
72721;BME280;60835;50.974;10.322;2022-07-30T07:01:46;98252.56;;;18.46;100.00
72721;BME280;60835;50.974;10.322;2022-07-30T07:04:13;98254.84;;;18.30;100.00
72721;BME280;60835;50.974;10.322;2022-07-30T07:06:39;98251.72;;;18.46;100.00
72721;BME280;60835;50.974;10.322;2022-07-30T07:09:06;98261.25;;;18.29;100.00
72721;BME280;60835;50.974;10.322;2022-07-30T07:11:34;98254.25;;;18.21;100.00
72721;BME280;60835;50.974;10.322;2022-07-30T07:14:01;98250.31;;;18.50;100.00
72721;BME280;60835;50.974;10.322;2022-07-30T07:16:30;98259.38;;;18.22;100.00
72721;BME280;60835;50.974;10.322;2022-07-30T07:18:57;98245.16;;;18.29;100.00
72721;BME280;60835;50.974;10.322;2022-07-30T07:21:26;98253.78;;;18.44;100.00
72721;BME280;60835;50.974;10.322;2022-07-30T07:23:53;98260.19;;;18.69;100.00
72721;BME280;60835;50.974;10.322;2022-07-30T07:26:19;98264.91;;;18.73;100.00
72721;BME280;60835;50.974;10.322;2022-07-30T07:28:46;98275.91;;;19.10;100.00
72721;BME280;60835;50.974;10.322;2022-07-30T07:31:12;98300.50;;;19.58;100.00
72721;BME280;60835;50.974;10.322;2022-07-30T07:33:58;98266.44;;;19.07;100.00
72721;BME280;60835;50.974;10.322;2022-07-30T07:36:26;98299.81;;;19.24;100.00
72721;BME280;60835;50.974;10.322;2022-07-30T07:38:52;98249.16;;;19.03;100.00
72721;BME280;60835;50.974;10.322;2022-07-30T07:41:19;98270.88;;;19.33;100.00
72721;BME280;60835;50.974;10.322;2022-07-30T07:43:45;98268.47;;;19.12;100.00
72721;BME280;60835;50.974;10.322;2022-07-30T07:46:12;98274.28;;;19.09;100.00
72721;BME280;60835;50.974;10.322;2022-07-30T07:48:59;98236.91;;;18.63;100.00
72721;BME280;60835;50.974;10.322;2022-07-30T07:51:29;98280.88;;;19.06;100.00
72721;BME280;60835;50.974;10.322;2022-07-30T07:54:13;98287.78;;;18.76;100.00
72721;BME280;60835;50.974;10.322;2022-07-30T07:56:48;98264.66;;;18.88;100.00
72721;BME280;60835;50.974;10.322;2022-07-30T07:59:18;98259.44;;;19.06;100.00
72721;BME280;60835;50.974;10.322;2022-07-30T08:01:44;98284.13;;;19.21;100.00
72721;BME280;60835;50.974;10.322;2022-07-30T08:04:12;98311.38;;;19.18;100.00
72721;BME280;60835;50.974;10.322;2022-07-30T08:06:39;98313.97;;;19.51;100.00
72721;BME280;60835;50.974;10.322;2022-07-30T08:09:08;98330.19;;;19.63;100.00
72721;BME280;60835;50.974;10.322;2022-07-30T08:11:34;98343.94;;;19.35;100.00
72721;BME280;60835;50.974;10.322;2022-07-30T08:14:01;98339.91;;;18.93;100.00
72721;BME280;60835;50.974;10.322;2022-07-30T08:16:30;98319.75;;;18.71;100.00
72721;BME280;60835;50.974;10.322;2022-07-30T08:18:57;98294.97;;;18.95;100.00
72721;BME280;60835;50.974;10.322;2022-07-30T08:21:23;98285.75;;;19.22;100.00
72721;BME280;60835;50.974;10.322;2022-07-30T08:23:51;98289.56;;;19.08;100.00
72721;BME280;60835;50.974;10.322;2022-07-30T08:26:18;98291.81;;;19.11;100.00
72721;BME280;60835;50.974;10.322;2022-07-30T08:28:49;98286.63;;;19.16;100.00
72721;BME280;60835;50.974;10.322;2022-07-30T08:31:21;98275.09;;;19.09;100.00
72721;BME280;60835;50.974;10.322;2022-07-30T08:33:49;98273.56;;;18.82;100.00
72721;BME280;60835;50.974;10.322;2022-07-30T08:36:17;98282.63;;;18.88;100.00
72721;BME280;60835;50.974;10.322;2022-07-30T08:38:48;98274.72;;;19.06;100.00
72721;BME280;60835;50.974;10.322;2022-07-30T08:41:17;98289.22;;;19.42;100.00
72721;BME280;60835;50.974;10.322;2022-07-30T08:43:46;98300.59;;;19.76;100.00
72721;BME280;60835;50.974;10.322;2022-07-30T08:46:14;98334.81;;;21.17;100.00
72721;BME280;60835;50.974;10.322;2022-07-30T08:48:43;98450.09;;;22.70;100.00
72721;BME280;60835;50.974;10.322;2022-07-30T08:51:10;98507.75;;;23.11;100.00
72721;BME280;60835;50.974;10.322;2022-07-30T08:53:36;98645.59;;;24.03;100.00
72721;BME280;60835;50.974;10.322;2022-07-30T08:56:05;98629.97;;;24.29;100.00
72721;BME280;60835;50.974;10.322;2022-07-30T08:58:33;98728.19;;;24.92;100.00
72721;BME280;60835;50.974;10.322;2022-07-30T09:01:03;98766.97;;;25.61;100.00
72721;BME280;60835;50.974;10.322;2022-07-30T09:03:29;98856.22;;;26.07;100.00
72721;BME280;60835;50.974;10.322;2022-07-30T09:05:56;98851.81;;;25.50;100.00
72721;BME280;60835;50.974;10.322;2022-07-30T09:08:23;98880.69;;;26.12;100.00
72721;BME280;60835;50.974;10.322;2022-07-30T09:10:50;98851.59;;;26.52;100.00
72721;BME280;60835;50.974;10.322;2022-07-30T09:13:28;98877.47;;;25.59;100.00
72721;BME280;60835;50.974;10.322;2022-07-30T09:15:55;98822.16;;;25.31;100.00
72721;BME280;60835;50.974;10.322;2022-07-30T09:18:31;98860.53;;;26.08;100.00
72721;BME280;60835;50.974;10.322;2022-07-30T09:21:01;98866.97;;;27.35;100.00
72721;BME280;60835;50.974;10.322;2022-07-30T09:23:38;98920.72;;;26.78;100.00
72721;BME280;60835;50.974;10.322;2022-07-30T09:26:05;98927.41;;;28.02;100.00
72721;BME280;60835;50.974;10.322;2022-07-30T09:28:33;98946.28;;;27.15;100.00
72721;BME280;60835;50.974;10.322;2022-07-30T09:31:04;98902.09;;;24.76;100.00
72721;BME280;60835;50.974;10.322;2022-07-30T09:33:41;98887.63;;;26.65;100.00
72721;BME280;60835;50.974;10.322;2022-07-30T09:36:10;98875.16;;;25.51;100.00
72721;BME280;60835;50.974;10.322;2022-07-30T09:38:55;98915.28;;;26.33;100.00
72721;BME280;60835;50.974;10.322;2022-07-30T09:41:36;98917.59;;;27.03;100.00
72721;BME280;60835;50.974;10.322;2022-07-30T09:44:05;98943.06;;;26.69;100.00
72721;BME280;60835;50.974;10.322;2022-07-30T09:46:49;98986.03;;;28.15;100.00
72721;BME280;60835;50.974;10.322;2022-07-30T09:49:29;98973.38;;;27.10;100.00
72721;BME280;60835;50.974;10.322;2022-07-30T09:51:55;98964.47;;;27.15;100.00
72721;BME280;60835;50.974;10.322;2022-07-30T09:54:24;98964.22;;;26.83;100.00
72721;BME280;60835;50.974;10.322;2022-07-30T09:57:17;98999.94;;;26.63;100.00
72721;BME280;60835;50.974;10.322;2022-07-30T09:59:57;98960.94;;;26.36;100.00
72721;BME280;60835;50.974;10.322;2022-07-30T10:02:30;98994.59;;;26.97;100.00
72721;BME280;60835;50.974;10.322;2022-07-30T10:05:08;98973.69;;;25.84;100.00
72721;BME280;60835;50.974;10.322;2022-07-30T10:07:51;98968.44;;;26.18;100.00
72721;BME280;60835;50.974;10.322;2022-07-30T10:10:20;98952.59;;;25.86;100.00
72721;BME280;60835;50.974;10.322;2022-07-30T10:12:54;99000.06;;;26.40;100.00
72721;BME280;60835;50.974;10.322;2022-07-30T10:15:32;99018.78;;;26.82;100.00
72721;BME280;60835;50.974;10.322;2022-07-30T10:18:01;99046.66;;;27.72;100.00
72721;BME280;60835;50.974;10.322;2022-07-30T10:20:36;99016.06;;;26.82;100.00
72721;BME280;60835;50.974;10.322;2022-07-30T10:23:06;98999.63;;;25.80;100.00
72721;BME280;60835;50.974;10.322;2022-07-30T10:25:36;99026.88;;;27.10;100.00
72721;BME280;60835;50.974;10.322;2022-07-30T10:28:20;99076.91;;;27.14;100.00
72721;BME280;60835;50.974;10.322;2022-07-30T10:30:53;99080.13;;;29.29;100.00
72721;BME280;60835;50.974;10.322;2022-07-30T10:33:23;99090.78;;;27.62;100.00
72721;BME280;60835;50.974;10.322;2022-07-30T10:36:03;99048.66;;;26.82;100.00
72721;BME280;60835;50.974;10.322;2022-07-30T10:38:33;99036.31;;;26.63;100.00
72721;BME280;60835;50.974;10.322;2022-07-30T10:47:13;99086.53;;;27.66;100.00
72721;BME280;60835;50.974;10.322;2022-07-30T10:50:08;99100.38;;;28.42;100.00
72721;BME280;60835;50.974;10.322;2022-07-30T10:52:50;99092.75;;;26.89;100.00
72721;BME280;60835;50.974;10.322;2022-07-30T10:55:19;99100.84;;;29.62;100.00
72721;BME280;60835;50.974;10.322;2022-07-30T10:58:05;99100.81;;;29.57;100.00
72721;BME280;60835;50.974;10.322;2022-07-30T11:03:32;99099.97;;;28.55;100.00
72721;BME280;60835;50.974;10.322;2022-07-30T11:08:50;99088.59;;;26.98;100.00
72721;BME280;60835;50.974;10.322;2022-07-30T11:14:06;99101.47;;;28.62;100.00
72721;BME280;60835;50.974;10.322;2022-07-30T11:19:13;99084.91;;;28.25;100.00
72721;BME280;60835;50.974;10.322;2022-07-30T11:22:24;99080.31;;;28.26;100.00
72721;BME280;60835;50.974;10.322;2022-07-30T11:24:53;99078.06;;;26.73;100.00
72721;BME280;60835;50.974;10.322;2022-07-30T11:27:40;99027.53;;;27.17;100.00
72721;BME280;60835;50.974;10.322;2022-07-30T11:32:45;99095.13;;;28.57;100.00
72721;BME280;60835;50.974;10.322;2022-07-30T11:35:21;99095.00;;;28.25;100.00
72721;BME280;60835;50.974;10.322;2022-07-30T11:38:03;99086.97;;;27.13;100.00
72721;BME280;60835;50.974;10.322;2022-07-30T11:43:30;99062.34;;;27.87;100.00
72721;BME280;60835;50.974;10.322;2022-07-30T11:46:13;99043.34;;;27.37;100.00
72721;BME280;60835;50.974;10.322;2022-07-30T11:48:54;99046.63;;;27.05;100.00
72721;BME280;60835;50.974;10.322;2022-07-30T11:51:21;99036.78;;;26.59;100.00
72721;BME280;60835;50.974;10.322;2022-07-30T11:53:59;99036.88;;;26.65;100.00
72721;BME280;60835;50.974;10.322;2022-07-30T11:56:27;99015.06;;;25.80;100.00
72721;BME280;60835;50.974;10.322;2022-07-30T11:59:03;99001.03;;;25.83;100.00
72721;BME280;60835;50.974;10.322;2022-07-30T12:01:32;98979.34;;;25.83;100.00
72721;BME280;60835;50.974;10.322;2022-07-30T12:04:04;99026.19;;;26.58;100.00
72721;BME280;60835;50.974;10.322;2022-07-30T12:06:31;99032.72;;;25.82;100.00
72721;BME280;60835;50.974;10.322;2022-07-30T12:08:59;99014.38;;;25.73;100.00
72721;BME280;60835;50.974;10.322;2022-07-30T12:11:37;99006.59;;;25.65;100.00
72721;BME280;60835;50.974;10.322;2022-07-30T12:14:04;98995.34;;;24.92;100.00
72721;BME280;60835;50.974;10.322;2022-07-30T12:16:32;98972.72;;;24.86;100.00
72721;BME280;60835;50.974;10.322;2022-07-30T12:19:08;98950.75;;;24.53;100.00
72721;BME280;60835;50.974;10.322;2022-07-30T12:21:35;99000.69;;;25.21;100.00
72721;BME280;60835;50.974;10.322;2022-07-30T12:24:03;98988.22;;;25.20;100.00
72721;BME280;60835;50.974;10.322;2022-07-30T12:26:34;98998.53;;;25.00;100.00
72721;BME280;60835;50.974;10.322;2022-07-30T12:29:06;98985.34;;;24.92;100.00
72721;BME280;60835;50.974;10.322;2022-07-30T12:31:35;98994.03;;;24.53;100.00
72721;BME280;60835;50.974;10.322;2022-07-30T12:34:22;99026.13;;;24.19;100.00
72721;BME280;60835;50.974;10.322;2022-07-30T12:36:50;99021.16;;;23.98;100.00
72721;BME280;60835;50.974;10.322;2022-07-30T12:39:23;99023.19;;;23.85;100.00
72721;BME280;60835;50.974;10.322;2022-07-30T12:41:54;99028.94;;;23.70;100.00
72721;BME280;60835;50.974;10.322;2022-07-30T12:47:01;99023.34;;;23.22;100.00
72721;BME280;60835;50.974;10.322;2022-07-30T12:49:31;98960.25;;;23.17;100.00
72721;BME280;60835;50.974;10.322;2022-07-30T12:55:08;98965.66;;;23.41;100.00
72721;BME280;60835;50.974;10.322;2022-07-30T12:58:05;98976.63;;;23.46;100.00
72721;BME280;60835;50.974;10.322;2022-07-30T13:03:23;98973.97;;;22.90;100.00
72721;BME280;60835;50.974;10.322;2022-07-30T13:05:52;98979.81;;;23.12;100.00
72721;BME280;60835;50.974;10.322;2022-07-30T13:08:50;99002.16;;;23.87;100.00
72721;BME280;60835;50.974;10.322;2022-07-30T13:11:41;98976.16;;;22.44;100.00
72721;BME280;60835;50.974;10.322;2022-07-30T13:14:14;98940.09;;;22.76;100.00
72721;BME280;60835;50.974;10.322;2022-07-30T13:16:42;98958.63;;;22.91;100.00
72721;BME280;60835;50.974;10.322;2022-07-30T13:19:10;98966.63;;;22.79;100.00
72721;BME280;60835;50.974;10.322;2022-07-30T13:21:38;98917.00;;;21.80;100.00
72721;BME280;60835;50.974;10.322;2022-07-30T13:24:14;98928.50;;;22.00;100.00
72721;BME280;60835;50.974;10.322;2022-07-30T13:26:44;98907.16;;;21.54;100.00
72721;BME280;60835;50.974;10.322;2022-07-30T13:29:10;98891.09;;;21.28;100.00
72721;BME280;60835;50.974;10.322;2022-07-30T13:31:39;98889.88;;;21.17;100.00
72721;BME280;60835;50.974;10.322;2022-07-30T13:34:09;98876.38;;;21.31;100.00
72721;BME280;60835;50.974;10.322;2022-07-30T13:36:36;98854.91;;;21.11;100.00